Time;durP1;ratioP1;P1;durP2;ratioP2;P2;SDS_P1;SDS_P2;PMS_P1;PMS_P2;Temp;Humidity;BMP_temperature;BMP_pressure;BME280_temperature;BME280_humidity;BME280_pressure;Samples;Min_cycle;Max_cycle;Signal;HPM_P1;HPM_P2
2022/02/17 00:02:22;;;;;;;43.20;25.70;;;;;;;2.56;68.42;94557.53;5072059;28;20487;-67
2022/02/17 00:04:47;;;;;;;50.28;26.60;;;;;;;2.44;68.23;94553.09;5073502;28;20563;-67
2022/02/17 00:07:13;;;;;;;45.67;25.02;;;;;;;2.47;68.03;94561.44;5073121;28;20078;-67
2022/02/17 00:09:38;;;;;;;46.42;25.92;;;;;;;2.42;68.17;94560.88;5055143;28;20036;-67
2022/02/17 00:12:04;;;;;;;43.15;24.77;;;;;;;2.29;68.63;94553.94;5073120;28;20513;-67
2022/02/17 00:14:30;;;;;;;42.72;25.08;;;;;;;2.28;68.58;94555.66;5073084;28;20035;-67
2022/02/17 00:16:55;;;;;;;43.42;24.55;;;;;;;2.31;68.44;94570.06;5081478;28;20109;-67
2022/02/17 00:19:21;;;;;;;44.22;25.20;;;;;;;2.29;68.31;94564.19;5091831;28;20028;-67
2022/02/17 00:21:48;;;;;;;41.55;25.00;;;;;;;2.27;68.80;94550.63;5058311;28;20035;-67
2022/02/17 00:24:14;;;;;;;47.28;25.27;;;;;;;2.26;68.75;94559.22;5075179;28;20482;-67
2022/02/17 00:26:40;;;;;;;45.40;24.67;;;;;;;2.03;69.43;94538.22;5074856;28;20028;-67
2022/02/17 00:29:05;;;;;;;48.63;25.38;;;;;;;2.16;68.95;94559.72;5093071;28;20032;-67
2022/02/17 00:31:31;;;;;;;42.55;24.17;;;;;;;2.10;69.11;94537.00;5092853;28;20078;-67
2022/02/17 00:33:56;;;;;;;46.30;26.60;;;;;;;2.18;68.51;94557.91;5092358;28;20035;-67
2022/02/17 00:36:22;;;;;;;44.08;25.95;;;;;;;2.17;69.31;94560.53;5074937;28;20452;-67
2022/02/17 00:38:47;;;;;;;45.72;26.40;;;;;;;2.13;69.11;94559.88;5091552;28;20020;-68
2022/02/17 00:41:13;;;;;;;47.33;27.02;;;;;;;2.09;69.34;94558.41;5093125;28;20039;-68
2022/02/17 00:43:38;;;;;;;50.47;26.45;;;;;;;2.03;69.83;94551.03;5091491;28;20028;-67
2022/02/17 00:46:03;;;;;;;45.55;25.70;;;;;;;2.01;69.52;94535.75;5074760;28;20046;-67
2022/02/17 00:48:29;;;;;;;46.00;25.42;;;;;;;2.05;69.31;94541.53;5091244;28;20039;-67
2022/02/17 00:50:55;;;;;;;47.72;25.00;;;;;;;2.01;69.37;94525.50;5092426;28;20040;-67
2022/02/17 00:53:20;;;;;;;49.80;26.35;;;;;;;2.03;69.24;94535.66;5092481;28;20031;-67
2022/02/17 00:55:45;;;;;;;49.83;27.45;;;;;;;1.84;70.06;94542.66;5092757;28;20039;-67
2022/02/17 00:58:11;;;;;;;48.53;27.33;;;;;;;1.91;69.80;94515.84;5091259;28;20035;-67
2022/02/17 01:00:36;;;;;;;49.92;26.27;;;;;;;1.93;69.98;94537.06;5092604;28;20024;-67
2022/02/17 01:03:02;;;;;;;51.35;27.17;;;;;;;1.93;69.95;94548.16;5091030;28;20020;-67
2022/02/17 01:05:28;;;;;;;52.25;26.67;;;;;;;1.94;70.29;94524.16;5092259;28;20115;-67
2022/02/17 01:07:54;;;;;;;47.05;26.75;;;;;;;1.95;70.39;94541.22;5074212;28;20032;-67
2022/02/17 01:10:19;;;;;;;47.45;26.48;;;;;;;1.99;69.76;94536.75;5092328;28;20043;-67
2022/02/17 01:12:45;;;;;;;48.67;26.85;;;;;;;2.01;69.72;94525.50;5092157;28;20031;-67
2022/02/17 01:15:10;;;;;;;47.00;25.60;;;;;;;2.02;69.60;94528.88;5073724;28;20071;-67
2022/02/17 01:17:36;;;;;;;45.53;26.73;;;;;;;1.96;69.75;94530.03;5059765;28;20029;-67
2022/02/17 01:20:01;;;;;;;47.35;26.73;;;;;;;1.97;70.08;94518.06;5071848;28;20033;-67
2022/02/17 01:22:26;;;;;;;48.33;25.75;;;;;;;2.02;69.23;94500.69;5070463;28;20391;-67
2022/02/17 01:24:52;;;;;;;43.90;25.50;;;;;;;1.98;69.39;94519.72;5071730;28;20035;-67
2022/02/17 01:27:17;;;;;;;50.53;27.30;;;;;;;1.84;69.66;94511.94;5071550;28;20056;-67
2022/02/17 01:29:43;;;;;;;49.65;28.13;;;;;;;1.86;69.75;94505.81;5053611;28;20486;-67
2022/02/17 01:32:08;;;;;;;52.72;27.85;;;;;;;1.82;69.34;94493.28;5071546;28;20043;-67
2022/02/17 01:34:34;;;;;;;51.47;26.65;;;;;;;1.75;69.77;94496.16;5070218;28;20310;-67
2022/02/17 01:36:59;;;;;;;47.92;26.77;;;;;;;1.76;70.26;94497.00;5070261;28;20021;-67
2022/02/17 01:39:25;;;;;;;49.15;28.45;;;;;;;1.73;69.95;94495.41;5053523;28;20040;-67
2022/02/17 01:41:50;;;;;;;52.28;26.88;;;;;;;1.75;70.30;94488.47;5069998;28;20442;-67
2022/02/17 01:44:16;;;;;;;48.85;26.77;;;;;;;1.70;70.34;94475.09;5052594;28;20024;-67
2022/02/17 01:46:42;;;;;;;47.05;26.73;;;;;;;1.79;69.93;94482.28;5071214;28;20031;-67
2022/02/17 01:49:09;;;;;;;45.85;25.77;;;;;;;1.81;70.13;94474.50;5071063;28;20028;-67
2022/02/17 01:51:34;;;;;;;44.53;26.05;;;;;;;1.78;69.99;94482.34;5053320;28;20025;-67
2022/02/17 01:54:00;;;;;;;46.00;25.80;;;;;;;1.77;70.00;94468.72;5071485;28;20120;-67
2022/02/17 01:56:26;;;;;;;49.28;26.67;;;;;;;1.71;70.12;94461.38;5071578;28;20401;-67
2022/02/17 01:58:52;;;;;;;53.85;25.80;;;;;;;1.71;70.53;94466.50;5053345;28;20025;-67
2022/02/17 02:01:17;;;;;;;47.58;27.33;;;;;;;1.69;70.21;94457.25;5053389;28;20039;-67
2022/02/17 02:03:43;;;;;;;47.78;24.52;;;;;;;1.68;70.60;94471.78;5071152;28;20029;-67
2022/02/17 02:06:08;;;;;;;44.55;25.27;;;;;;;1.67;70.75;94459.91;5071425;28;20028;-67
2022/02/17 02:08:34;;;;;;;60.50;28.10;;;;;;;1.60;70.85;94476.50;5053325;28;20504;-67
2022/02/17 02:10:59;;;;;;;47.50;26.70;;;;;;;1.57;71.40;94474.09;5069838;28;20037;-67
2022/02/17 02:13:25;;;;;;;42.63;23.73;;;;;;;1.63;71.56;94471.19;5069730;28;20037;-67
2022/02/17 02:15:51;;;;;;;46.55;25.30;;;;;;;1.69;70.66;94476.00;5070906;28;20055;-67
2022/02/17 02:18:18;;;;;;;45.58;25.52;;;;;;;1.56;70.59;94473.28;5072805;28;20559;-67
2022/02/17 02:20:51;;;;;;;53.72;27.05;;;;;;;1.56;71.21;94472.41;5091267;28;20039;-67
2022/02/17 02:23:16;;;;;;;54.08;27.08;;;;;;;1.26;71.67;94465.47;5089816;28;20024;-67
2022/02/17 02:25:44;;;;;;;48.55;26.63;;;;;;;1.30;72.00;94474.63;5089721;28;20032;-67
2022/02/17 02:28:10;;;;;;;49.47;27.50;;;;;;;1.31;71.69;94488.28;5089670;28;20077;-67
2022/02/17 02:30:35;;;;;;;50.42;27.52;;;;;;;1.33;71.50;94482.13;5090789;28;20048;-67
2022/02/17 02:33:00;;;;;;;44.08;25.20;;;;;;;1.39;71.42;94482.72;5089721;28;20016;-67
2022/02/17 02:35:26;;;;;;;49.08;27.33;;;;;;;1.31;71.43;94472.91;5089701;28;20047;-67
2022/02/17 02:37:51;;;;;;;45.92;25.15;;;;;;;1.38;72.49;94479.34;5090945;28;20390;-67
2022/02/17 02:40:17;;;;;;;50.08;26.73;;;;;;;1.39;71.82;94475.06;5089649;28;20485;-67
2022/02/17 02:42:45;;;;;;;46.08;26.52;;;;;;;1.49;70.84;94476.22;5090801;28;20044;-67
2022/02/17 02:45:10;;;;;;;47.83;26.67;;;;;;;1.42;70.70;94464.66;5089615;28;20029;-68
2022/02/17 02:47:36;;;;;;;46.92;25.77;;;;;;;1.36;70.75;94475.22;5072738;28;20082;-67
2022/02/17 02:50:01;;;;;;;49.92;26.98;;;;;;;1.40;70.99;94480.09;5072708;28;20024;-67
2022/02/17 02:52:29;;;;;;;49.13;25.85;;;;;;;1.41;71.30;94488.59;5089560;28;20039;-67
2022/02/17 02:54:55;;;;;;;48.10;26.38;;;;;;;1.33;71.37;94479.56;5090773;28;20039;-67
2022/02/17 02:57:21;;;;;;;48.58;27.52;;;;;;;1.39;71.46;94472.50;5094646;28;20421;-67
2022/02/17 02:59:46;;;;;;;46.80;24.63;;;;;;;1.38;71.46;94487.03;5093419;28;20063;-67
2022/02/17 03:02:12;;;;;;;47.97;24.13;;;;;;;1.35;71.60;94484.63;5094702;28;20036;-67
2022/02/17 03:04:37;;;;;;;46.88;25.13;;;;;;;1.37;71.67;94487.94;5076412;28;20028;-67
2022/02/17 03:07:03;;;;;;;44.28;23.50;;;;;;;1.34;72.05;94478.69;5094632;28;20032;-67
2022/02/17 03:09:28;;;;;;;43.13;24.13;;;;;;;1.40;71.94;94477.53;5076443;28;20036;-67
2022/02/17 03:11:53;;;;;;;42.53;24.60;;;;;;;1.43;72.00;94466.31;5093312;28;20028;-67
2022/02/17 03:14:19;;;;;;;48.17;24.75;;;;;;;1.46;72.29;94473.84;5076328;28;20395;-67
2022/02/17 03:16:44;;;;;;;36.95;22.83;;;;;;;1.45;72.54;94474.72;5086052;28;20083;-67
2022/02/17 03:19:13;;;;;;;41.28;24.00;;;;;;;1.49;71.84;94466.81;5073981;28;20418;-67
2022/02/17 03:21:39;;;;;;;43.15;23.60;;;;;;;1.53;71.62;94478.56;5072784;28;20023;-67
2022/02/17 03:24:04;;;;;;;47.78;24.08;;;;;;;1.39;72.55;94463.06;5073854;28;20060;-68
2022/02/17 03:26:30;;;;;;;46.22;24.77;;;;;;;1.56;71.65;94462.19;5072592;28;20099;-68
2022/02/17 03:28:55;;;;;;;43.28;23.25;;;;;;;1.51;72.13;94449.63;5071534;28;20501;-67
2022/02/17 03:31:21;;;;;;;43.17;23.25;;;;;;;1.51;71.69;94444.53;5072774;28;20047;-67
2022/02/17 03:33:47;;;;;;;48.88;24.35;;;;;;;1.41;72.26;94457.88;5072530;28;20028;-69
2022/02/17 03:36:12;;;;;;;40.90;23.63;;;;;;;1.54;71.51;94467.41;5074144;28;20028;-67
2022/02/17 03:38:38;;;;;;;43.15;23.38;;;;;;;1.49;71.98;94471.13;5072528;28;20031;-67
2022/02/17 03:41:03;;;;;;;40.47;22.17;;;;;;;1.47;71.79;94453.25;5074123;28;20032;-67
2022/02/17 03:43:28;;;;;;;45.13;24.83;;;;;;;1.46;71.74;94440.56;5055776;28;20108;-67
2022/02/17 03:45:54;;;;;;;46.65;25.48;;;;;;;1.47;72.36;94437.06;5072475;28;20036;-67
2022/02/17 03:48:19;;;;;;;43.42;23.52;;;;;;;1.43;72.02;94433.88;5073512;28;20032;-67
2022/02/17 03:50:45;;;;;;;39.53;23.27;;;;;;;1.39;72.06;94445.16;5055693;28;20067;-67
2022/02/17 03:53:10;;;;;;;52.28;23.25;;;;;;;1.36;72.38;94432.53;5073463;28;20027;-67
2022/02/17 03:55:35;;;;;;;41.80;23.35;;;;;;;1.40;72.08;94440.88;5073692;28;20406;-67
2022/02/17 03:58:01;;;;;;;46.42;23.80;;;;;;;1.33;72.72;94446.31;5073399;28;20431;-67
2022/02/17 04:00:26;;;;;;;42.85;21.88;;;;;;;1.36;72.54;94444.50;5055468;28;20482;-67
2022/02/17 04:02:52;;;;;;;40.92;22.88;;;;;;;1.39;71.91;94436.66;5073334;28;20405;-67
2022/02/17 04:05:18;;;;;;;40.15;21.60;;;;;;;1.40;71.88;94446.00;5073405;28;20036;-67
2022/02/17 04:07:43;;;;;;;42.50;23.25;;;;;;;1.36;71.64;94445.31;5070974;28;20029;-67
2022/02/17 04:10:09;;;;;;;37.75;21.48;;;;;;;1.38;71.92;94448.63;5055369;28;20544;-67
2022/02/17 04:12:34;;;;;;;37.00;21.45;;;;;;;1.43;73.11;94446.66;5071784;28;20115;-67
2022/02/17 04:15:00;;;;;;;39.47;21.27;;;;;;;1.51;72.88;94464.19;5071809;28;20052;-67
2022/02/17 04:17:25;;;;;;;38.05;20.58;;;;;;;1.47;72.61;94465.25;5067635;28;20427;-67
2022/02/17 04:19:52;;;;;;;43.08;21.02;;;;;;;1.55;71.91;94486.13;5091911;28;20406;-67
2022/02/17 04:22:18;;;;;;;41.97;22.35;;;;;;;1.50;72.27;94488.94;5075204;28;20184;-67
2022/02/17 04:24:43;;;;;;;36.38;21.02;;;;;;;1.51;72.34;94490.59;5092975;28;20524;-67
2022/02/17 04:27:09;;;;;;;39.55;20.48;;;;;;;1.53;71.97;94486.25;5092967;28;20031;-67
2022/02/17 04:29:34;;;;;;;38.60;20.63;;;;;;;1.53;71.71;94490.50;5093073;28;20422;-67
2022/02/17 04:32:00;;;;;;;48.42;23.92;;;;;;;1.52;70.95;94479.44;5091778;28;20024;-67
2022/02/17 04:34:25;;;;;;;43.38;23.13;;;;;;;1.48;71.30;94489.94;5074869;28;20028;-68
2022/02/17 04:36:51;;;;;;;49.17;24.67;;;;;;;1.40;71.15;94492.91;5092804;28;20413;-67
2022/02/17 04:39:16;;;;;;;54.70;31.10;;;;;;;1.40;71.05;94479.28;5074676;28;20020;-67
2022/02/17 04:44:26;;;;;;;45.35;23.42;;;;;;;1.31;70.61;94460.94;5092698;28;20108;-67
2022/02/17 04:46:51;;;;;;;57.90;30.80;;;;;;;1.24;71.19;94463.88;5074575;28;20436;-67
2022/02/17 04:49:16;;;;;;;56.25;30.20;;;;;;;1.23;71.45;94462.25;5092528;28;20035;-67
2022/02/17 04:51:42;;;;;;;48.70;26.10;;;;;;;1.29;70.77;94470.41;5092475;28;20474;-67
2022/02/17 04:54:08;;;;;;;40.15;21.27;;;;;;;1.09;72.12;94452.72;5091211;28;20031;-67
2022/02/17 04:56:33;;;;;;;40.28;21.23;;;;;;;1.18;72.01;94449.69;5092412;28;20413;-67
2022/02/17 04:58:58;;;;;;;39.25;21.77;;;;;;;1.19;72.63;94441.09;5092643;28;20020;-67
2022/02/17 05:01:24;;;;;;;39.13;20.92;;;;;;;1.13;72.98;94438.84;5074410;28;20036;-67
2022/02/17 05:03:49;;;;;;;37.47;21.48;;;;;;;1.18;72.38;94429.22;5074348;28;20050;-67
2022/02/17 05:06:15;;;;;;;42.10;22.08;;;;;;;1.20;72.86;94435.09;5074259;28;20032;-67
2022/02/17 05:08:40;;;;;;;42.00;22.17;;;;;;;1.30;72.65;94436.22;5092187;28;20028;-67
2022/02/17 05:11:06;;;;;;;40.35;22.00;;;;;;;1.32;72.87;94443.84;5092587;28;20452;-67
2022/02/17 05:13:32;;;;;;;43.13;22.05;;;;;;;1.41;72.40;94442.53;5090834;28;20020;-67
2022/02/17 05:15:57;;;;;;;53.05;28.85;;;;;;;1.40;71.94;94443.44;5090240;28;20051;-67
2022/02/17 05:18:23;;;;;;;57.50;32.00;;;;;;;1.31;72.37;94452.44;5070469;28;20027;-67
2022/02/17 05:20:48;;;;;;;72.57;38.20;;;;;;;1.30;71.73;94446.47;5070605;28;20037;-67
2022/02/17 05:23:13;;;;;;;69.57;35.88;;;;;;;1.30;72.13;94437.97;5071764;28;20047;-67
2022/02/17 05:25:39;;;;;;;71.93;35.72;;;;;;;1.21;72.08;94431.59;5070479;28;20028;-67
2022/02/17 05:28:05;;;;;;;64.20;32.60;;;;;;;1.17;72.89;94432.69;5071574;28;20036;-67
2022/02/17 05:30:40;;;;;;;69.32;38.17;;;;;;;1.10;72.71;94439.84;5071366;28;20043;-67
2022/02/17 05:33:13;;;;;;;70.85;36.10;;;;;;;1.13;72.30;94440.59;5071549;28;20123;-67
2022/02/17 05:35:38;;;;;;;70.32;34.60;;;;;;;1.08;72.72;94426.28;5071738;28;20036;-67
2022/02/17 05:38:04;;;;;;;62.72;32.97;;;;;;;1.02;73.17;94425.78;5036983;28;20090;-67
2022/02/17 05:40:29;;;;;;;111.32;50.17;;;;;;;0.87;73.52;94422.31;5071644;28;20031;-67
2022/02/17 05:42:55;;;;;;;114.13;51.08;;;;;;;0.88;73.29;94424.75;5070187;28;20417;-67
2022/02/17 05:45:20;;;;;;;112.15;52.50;;;;;;;0.91;73.06;94425.53;5053382;28;20040;-67
2022/02/17 05:47:46;;;;;;;113.82;51.83;;;;;;;1.02;72.86;94433.47;5071157;28;20036;-67
2022/02/17 05:50:11;;;;;;;100.57;47.08;;;;;;;1.03;72.87;94412.09;5036719;28;20032;-66
2022/02/17 05:52:37;;;;;;;95.68;43.63;;;;;;;1.09;72.68;94407.50;5082158;28;20501;-68
2022/02/17 05:55:03;;;;;;;107.88;51.05;;;;;;;1.08;72.71;94415.22;5073293;28;20036;-68
2022/02/17 05:57:28;;;;;;;119.20;52.80;;;;;;;1.01;72.21;94406.25;5080033;28;20116;-67
2022/02/17 05:59:54;;;;;;;108.85;48.65;;;;;;;1.08;72.62;94420.34;5086985;28;20036;-67
2022/02/17 06:02:19;;;;;;;92.97;42.95;;;;;;;1.12;73.14;94419.31;5085897;28;20028;-67
2022/02/17 06:04:45;;;;;;;95.53;46.58;;;;;;;1.21;73.61;94435.91;5070676;28;20036;-67
2022/02/17 06:07:13;;;;;;;94.38;44.75;;;;;;;1.28;73.01;94443.19;5068786;28;20031;-68
2022/02/17 06:09:40;;;;;;;82.78;39.05;;;;;;;1.32;73.71;94447.22;5084283;28;20032;-68
2022/02/17 06:12:06;;;;;;;89.03;42.50;;;;;;;1.39;73.45;94440.03;5055968;28;20039;-66
2022/02/17 06:14:31;;;;;;;84.45;42.28;;;;;;;1.36;74.00;94436.81;5088703;28;20032;-66
2022/02/17 06:16:57;;;;;;;86.13;40.25;;;;;;;1.44;73.84;94450.03;5076501;28;20477;-67
2022/02/17 06:19:22;;;;;;;81.50;42.65;;;;;;;1.47;73.93;94442.19;5090742;28;20020;-67
2022/02/17 06:21:48;;;;;;;101.82;44.63;;;;;;;1.61;73.47;94447.41;5078231;28;20037;-67
2022/02/17 06:24:13;;;;;;;62.88;35.25;;;;;;;1.58;73.72;94437.31;5052635;28;20483;-67
2022/02/17 06:26:38;;;;;;;74.65;37.97;;;;;;;1.70;73.92;94453.75;5069458;28;20025;-67
2022/02/17 06:29:04;;;;;;;86.90;43.15;;;;;;;1.72;72.90;94450.22;5075377;28;20032;-67
2022/02/17 06:31:31;;;;;;;87.50;45.03;;;;;;;1.84;72.75;94460.69;5070159;28;20067;-67
2022/02/17 06:33:57;;;;;;;92.47;44.50;;;;;;;1.92;72.81;94463.66;5053042;28;20104;-67
2022/02/17 06:36:23;;;;;;;81.90;39.65;;;;;;;2.03;72.22;94473.34;5053928;28;20040;-67
2022/02/17 06:38:48;;;;;;;78.60;38.65;;;;;;;1.99;71.79;94475.25;5076690;28;20028;-67
2022/02/17 06:41:14;;;;;;;75.65;37.80;;;;;;;2.15;72.05;94478.63;5071198;28;20058;-67
2022/02/17 06:43:40;;;;;;;86.22;39.75;;;;;;;2.22;71.81;94472.22;5069091;28;20047;-67
2022/02/17 06:46:06;;;;;;;82.53;38.65;;;;;;;2.27;71.49;94481.41;5076632;28;20032;-67
2022/02/17 06:48:31;;;;;;;75.65;36.35;;;;;;;2.29;70.70;94475.31;5090641;28;20036;-67
2022/02/17 06:50:57;;;;;;;72.30;37.92;;;;;;;2.34;71.35;94480.16;5085396;28;20037;-67
2022/02/17 06:53:22;;;;;;;84.07;42.10;;;;;;;2.34;71.48;94478.44;5070084;28;20056;-67
2022/02/17 06:55:48;;;;;;;71.18;36.13;;;;;;;2.28;71.79;94442.88;5069419;28;20040;-67
2022/02/17 06:58:15;;;;;;;70.10;36.88;;;;;;;2.40;70.99;94455.00;5078602;28;20432;-67
2022/02/17 07:00:40;;;;;;;75.88;39.00;;;;;;;2.41;71.13;94451.53;5090850;28;20039;-67
2022/02/17 07:03:06;;;;;;;94.85;42.70;;;;;;;2.48;71.64;94475.09;5072597;28;20028;-67
2022/02/17 07:05:32;;;;;;;75.18;36.90;;;;;;;2.52;70.38;94468.06;5089416;28;20031;-67
2022/02/17 07:07:57;;;;;;;76.57;35.47;;;;;;;2.60;70.65;94464.13;5090525;28;20028;-67
2022/02/17 07:13:07;;;;;;;88.20;43.83;;;;;;;2.66;70.99;94452.69;5055200;28;20055;-67
2022/02/17 07:15:35;;;;;;;126.40;58.30;;;;;;;2.74;70.84;94447.94;5052132;28;20052;-67
2022/02/17 07:18:07;;;;;;;124.95;50.25;;;;;;;2.87;70.47;94448.03;5052642;28;20089;-67
2022/02/17 07:20:33;;;;;;;91.65;45.70;;;;;;;2.93;70.39;94436.63;5069155;28;20025;-67
2022/02/17 07:22:59;;;;;;;124.95;52.40;;;;;;;3.03;69.50;94456.50;5069124;28;20028;-68
2022/02/17 07:25:24;;;;;;;131.73;54.15;;;;;;;3.12;69.46;94450.84;5070348;28;20048;-67
2022/02/17 07:27:50;;;;;;;124.95;55.42;;;;;;;3.11;69.45;94433.78;5054253;28;20213;-69
2022/02/17 07:30:15;;;;;;;113.68;51.10;;;;;;;3.12;69.47;94417.47;5070313;28;20412;-67
2022/02/17 07:32:41;;;;;;;128.27;58.40;;;;;;;3.09;69.72;94427.94;5085799;28;20040;-67
2022/02/17 07:35:07;;;;;;;105.18;51.17;;;;;;;3.10;69.92;94415.91;5068576;28;20032;-67
2022/02/17 07:37:32;;;;;;;82.15;42.30;;;;;;;3.17;69.53;94418.94;5068959;28;20039;-68
2022/02/17 07:39:58;;;;;;;80.60;38.38;;;;;;;3.16;70.02;94417.28;5068873;28;20502;-67
2022/02/17 07:42:23;;;;;;;68.07;38.65;;;;;;;3.63;69.41;94409.25;5070566;28;20411;-67
2022/02/17 07:44:49;;;;;;;71.53;37.20;;;;;;;4.39;67.69;94398.41;5073649;28;20032;-68
2022/02/17 07:47:14;;;;;;;63.42;33.35;;;;;;;4.96;65.93;94398.97;5089303;28;20024;-67
2022/02/17 07:49:40;;;;;;;58.35;32.75;;;;;;;5.38;64.72;94396.06;5083515;28;20028;-67
2022/02/17 07:52:05;;;;;;;60.00;33.25;;;;;;;5.55;62.82;94402.63;5090957;28;20032;-67
2022/02/17 07:54:30;;;;;;;66.55;34.88;;;;;;;6.00;61.86;94387.44;5092595;28;20481;-68
2022/02/17 07:56:56;;;;;;;58.70;33.28;;;;;;;6.52;61.38;94369.09;5092198;28;20500;-67
2022/02/17 07:59:21;;;;;;;58.50;34.55;;;;;;;6.91;58.88;94376.47;5057964;28;20036;-67
2022/02/17 08:01:47;;;;;;;59.35;33.88;;;;;;;7.16;59.05;94362.50;5073286;28;20024;-68
2022/02/17 08:04:12;;;;;;;63.63;34.70;;;;;;;7.49;57.55;94355.66;5055394;28;20039;-68
2022/02/17 08:06:38;;;;;;;61.03;34.95;;;;;;;7.80;56.74;94348.09;5078410;28;20475;-68
2022/02/17 08:09:04;;;;;;;54.88;33.55;;;;;;;8.02;56.48;94344.63;5082439;28;20024;-68
2022/02/17 08:11:29;;;;;;;54.75;32.78;;;;;;;8.28;55.76;94350.28;5083310;28;20497;-68
2022/02/17 08:13:55;;;;;;;51.60;32.58;;;;;;;8.60;54.53;94333.91;5092538;28;20065;-68
2022/02/17 08:16:23;;;;;;;51.63;32.28;;;;;;;8.76;55.32;94331.72;5085993;28;20057;-67
2022/02/17 08:18:48;;;;;;;48.50;30.20;;;;;;;8.95;53.95;94341.34;5056462;28;20029;-67
2022/02/17 08:21:14;;;;;;;46.10;31.13;;;;;;;8.85;54.10;94349.06;5072947;28;20098;-68
2022/02/17 08:23:39;;;;;;;49.42;30.42;;;;;;;8.57;54.87;94345.34;5084422;28;20517;-67
2022/02/17 08:26:05;;;;;;;44.55;28.92;;;;;;;8.48;55.38;94359.88;5084185;28;20055;-68
2022/02/17 08:28:30;;;;;;;45.95;29.50;;;;;;;8.30;55.44;94358.72;5093048;28;20038;-68
2022/02/17 08:30:56;;;;;;;51.17;31.00;;;;;;;8.06;56.53;94357.19;5074662;28;20524;-68
2022/02/17 08:33:21;;;;;;;49.53;30.70;;;;;;;7.72;56.73;94347.91;5071332;28;20027;-70
2022/02/17 08:35:46;;;;;;;54.67;31.55;;;;;;;7.70;57.15;94349.78;5060995;28;20040;-68
2022/02/17 08:38:12;;;;;;;47.60;30.95;;;;;;;7.64;57.61;94352.84;5063255;28;20020;-68
2022/02/17 08:40:38;;;;;;;53.17;31.10;;;;;;;7.58;57.25;94347.22;5073919;28;20037;-68
2022/02/17 08:43:09;;;;;;;57.25;31.70;;;;;;;7.54;57.49;94350.16;5084121;28;20024;-68
2022/02/17 08:45:42;;;;;;;52.90;32.60;;;;;;;7.41;58.19;94339.97;5052299;28;20672;-68
2022/02/17 08:48:08;;;;;;;56.35;31.50;;;;;;;7.48;58.61;94335.13;5087779;28;20031;-67
2022/02/17 08:50:34;;;;;;;50.50;30.25;;;;;;;7.51;58.43;94330.53;5081623;28;20036;-68
2022/02/17 08:52:59;;;;;;;53.78;31.77;;;;;;;7.48;58.61;94335.94;5084799;28;20153;-68
2022/02/17 08:55:25;;;;;;;53.00;30.67;;;;;;;7.53;59.15;94318.31;5087866;28;20036;-68
2022/02/17 08:57:51;;;;;;;53.65;30.20;;;;;;;7.59;58.56;94328.16;5084235;28;20061;-67
2022/02/17 09:00:17;;;;;;;49.67;29.65;;;;;;;7.65;58.46;94323.47;5085863;28;20298;-68
2022/02/17 09:02:43;;;;;;;47.83;29.05;;;;;;;7.72;58.07;94309.94;5086279;28;20062;-68
2022/02/17 09:05:08;;;;;;;49.78;30.55;;;;;;;7.67;58.36;94308.66;5085366;28;20032;-68
2022/02/17 09:07:34;;;;;;;50.22;28.65;;;;;;;7.73;58.30;94301.22;5085780;28;20388;-68
2022/02/17 09:09:59;;;;;;;44.40;27.77;;;;;;;7.86;57.88;94300.25;5084760;28;20455;-68
2022/02/17 09:12:31;;;;;;;48.78;28.42;;;;;;;7.95;57.71;94286.56;5087806;28;20040;-68
2022/02/17 09:14:57;;;;;;;54.38;30.42;;;;;;;7.80;57.73;94286.88;5084815;28;20051;-68
2022/02/17 09:17:22;;;;;;;45.40;28.83;;;;;;;7.87;57.87;94294.94;5069245;28;20417;-68
2022/02/17 09:19:47;;;;;;;54.60;33.47;;;;;;;7.86;57.89;94284.75;5084440;28;20024;-68
2022/02/17 09:22:13;;;;;;;50.30;30.65;;;;;;;7.89;57.79;94297.44;5086636;28;20036;-67
2022/02/17 09:24:38;;;;;;;45.60;28.65;;;;;;;7.85;57.82;94286.47;5087012;28;20032;-68
2022/02/17 09:27:04;;;;;;;44.38;28.50;;;;;;;7.87;58.83;94294.13;5086154;28;20043;-68
2022/02/17 09:29:29;;;;;;;45.25;27.20;;;;;;;7.88;57.97;94288.81;5065871;28;20483;-68
2022/02/17 09:31:55;;;;;;;49.05;28.20;;;;;;;7.84;58.15;94284.84;5087308;28;20031;-68
2022/02/17 09:34:20;;;;;;;41.15;26.92;;;;;;;7.91;58.68;94292.94;5087256;28;20021;-68
2022/02/17 09:36:46;;;;;;;45.92;27.80;;;;;;;7.99;58.46;94285.38;5088521;28;20094;-68
2022/02/17 09:39:11;;;;;;;44.42;27.90;;;;;;;8.15;58.38;94280.59;5083204;28;20052;-67
2022/02/17 09:41:37;;;;;;;44.50;27.15;;;;;;;8.06;57.69;94279.59;5086867;28;20028;-68
2022/02/17 09:44:08;;;;;;;42.85;28.05;;;;;;;8.10;58.06;94287.09;5084575;28;20058;-69
2022/02/17 09:46:33;;;;;;;;;;;;;;;8.19;57.86;94283.75;5081884;28;20043;-69
2022/02/17 09:49:02;;;;;;;39.42;24.42;;;;;;;8.11;58.15;94274.03;5083292;28;19920;-68
2022/02/17 09:51:31;;;;;;;41.58;24.92;;;;;;;8.30;58.06;94275.91;5084194;28;20028;-68
2022/02/17 09:53:57;;;;;;;38.83;25.33;;;;;;;8.41;57.53;94273.34;5051754;28;20032;-68
2022/02/17 09:56:24;;;;;;;39.88;24.27;;;;;;;8.46;57.01;94268.56;5068180;28;20059;-68
2022/02/17 09:58:54;;;;;;;37.38;23.55;;;;;;;8.62;56.92;94272.47;5083850;28;20115;-68
2022/02/17 10:01:22;;;;;;;37.92;23.08;;;;;;;8.62;57.06;94256.94;5067956;28;20044;-68
2022/02/17 10:03:48;;;;;;;39.45;22.98;;;;;;;8.58;56.75;94265.91;5084892;28;20028;-68
2022/02/17 10:06:14;;;;;;;39.60;23.63;;;;;;;8.67;56.69;94272.91;5086938;28;20039;-68
2022/02/17 10:08:40;;;;;;;34.25;23.98;;;;;;;8.79;56.47;94271.88;5084659;28;20043;-68
2022/02/17 10:11:07;;;;;;;38.10;24.13;;;;;;;8.88;56.20;94255.56;5063910;28;20028;-68
2022/02/17 10:13:33;;;;;;;35.10;23.25;;;;;;;8.82;55.83;94252.66;5082817;28;20032;-69
2022/02/17 10:15:59;;;;;;;34.90;24.63;;;;;;;8.76;56.01;94246.25;5086070;28;20522;-68
2022/02/17 10:18:28;;;;;;;38.58;23.08;;;;;;;8.92;55.54;94258.72;5084491;28;20445;-69
2022/02/17 10:21:09;;;;;;;41.95;25.73;;;;;;;8.92;55.90;94251.75;5065871;28;20040;-68
2022/02/17 10:23:47;;;;;;;41.58;25.65;;;;;;;8.97;55.62;94256.56;5084682;28;20032;-68
2022/02/17 10:26:12;;;;;;;44.00;23.63;;;;;;;9.10;55.20;94253.72;5051158;28;20044;-67
2022/02/17 10:28:41;;;;;;;43.95;23.73;;;;;;;9.26;54.70;94248.06;5082635;28;20024;-68
2022/02/17 10:31:08;;;;;;;34.92;24.15;;;;;;;9.21;54.41;94239.84;5086966;28;20407;-68
2022/02/17 10:33:40;;;;;;;39.45;23.70;;;;;;;9.18;54.89;94233.16;5083259;28;20069;-68
2022/02/17 10:36:05;;;;;;;41.78;23.38;;;;;;;9.31;55.02;94225.16;5083243;28;20039;-68
2022/02/17 10:38:31;;;;;;;37.35;22.50;;;;;;;9.47;54.31;94222.03;5082956;28;20073;-68
2022/02/17 10:40:56;;;;;;;36.85;21.80;;;;;;;9.49;54.54;94214.94;5084679;28;20040;-67
2022/02/17 10:43:27;;;;;;;38.30;22.42;;;;;;;9.46;54.58;94213.44;5080336;28;20025;-68
2022/02/17 10:45:52;;;;;;;30.50;20.92;;;;;;;9.55;53.66;94196.22;5048471;28;20539;-68
2022/02/17 10:48:24;;;;;;;34.70;21.23;;;;;;;9.56;53.92;94190.13;5082976;28;20058;-68
2022/02/17 10:51:09;;;;;;;34.85;20.08;;;;;;;9.80;53.46;94180.13;5066479;28;20043;-68
2022/02/17 10:53:42;;;;;;;31.60;18.65;;;;;;;10.02;53.34;94165.22;5084849;28;20028;-68
2022/02/17 10:56:15;;;;;;;30.67;17.42;;;;;;;10.26;52.43;94155.19;5084067;28;20044;-68
2022/02/17 10:58:48;;;;;;;30.10;15.52;;;;;;;10.39;51.45;94148.91;5081015;28;20506;-68
2022/02/17 11:01:15;;;;;;;21.65;15.02;;;;;;;10.59;50.72;94144.47;5085600;28;20103;-68
2022/02/17 11:03:40;;;;;;;19.02;13.38;;;;;;;10.79;49.72;94135.63;5066884;28;20027;-68
2022/02/17 11:06:07;;;;;;;26.20;13.18;;;;;;;10.96;49.14;94132.22;5047918;28;20417;-68
2022/02/17 11:08:33;;;;;;;26.55;15.20;;;;;;;10.87;49.80;94127.09;5044295;28;20043;-68
2022/02/17 11:10:59;;;;;;;23.45;15.60;;;;;;;10.76;50.14;94112.53;5066372;28;20032;-68
2022/02/17 11:13:25;;;;;;;19.33;13.55;;;;;;;10.83;50.23;94115.34;5083723;28;20031;-68
2022/02/17 11:15:53;;;;;;;27.50;16.55;;;;;;;10.86;51.31;94107.25;5084444;28;20083;-67
2022/02/17 11:18:20;;;;;;;27.92;16.05;;;;;;;10.94;50.75;94108.16;5087603;28;20028;-68
2022/02/17 11:20:47;;;;;;;31.30;14.93;;;;;;;11.07;50.09;94102.63;5054837;28;20043;-68
2022/02/17 11:23:18;;;;;;;27.30;16.40;;;;;;;11.11;49.38;94093.56;5084601;28;20025;-68
2022/02/17 11:25:43;;;;;;;25.80;15.30;;;;;;;11.07;49.90;94097.44;5072276;28;20028;-68